sensor_id;sensor_type;location;lat;lon;timestamp;temperature;humidity
23452;DHT22;11898;51.130;6.780;2024-03-06T00:02:17;9.20;99.90
23452;DHT22;11898;51.130;6.780;2024-03-06T00:04:47;9.30;99.90
23452;DHT22;11898;51.130;6.780;2024-03-06T00:07:17;9.30;99.90
23452;DHT22;11898;51.130;6.780;2024-03-06T00:09:46;9.10;99.90
23452;DHT22;11898;51.130;6.780;2024-03-06T00:12:15;9.10;99.90
23452;DHT22;11898;51.130;6.780;2024-03-06T00:14:43;9.10;99.90
23452;DHT22;11898;51.130;6.780;2024-03-06T00:17:12;9.20;99.90
23452;DHT22;11898;51.130;6.780;2024-03-06T00:19:41;9.10;99.90
23452;DHT22;11898;51.130;6.780;2024-03-06T00:22:10;9.20;99.90
23452;DHT22;11898;51.130;6.780;2024-03-06T00:24:39;9.20;99.90
23452;DHT22;11898;51.130;6.780;2024-03-06T00:27:09;9.10;99.90
23452;DHT22;11898;51.130;6.780;2024-03-06T00:29:38;9.10;99.90
23452;DHT22;11898;51.130;6.780;2024-03-06T00:32:07;9.00;99.90
23452;DHT22;11898;51.130;6.780;2024-03-06T00:34:36;9.10;99.90
23452;DHT22;11898;51.130;6.780;2024-03-06T00:37:05;9.00;99.90
23452;DHT22;11898;51.130;6.780;2024-03-06T00:39:37;9.00;99.90
23452;DHT22;11898;51.130;6.780;2024-03-06T00:42:06;9.00;99.90
23452;DHT22;11898;51.130;6.780;2024-03-06T00:47:06;8.90;99.90
23452;DHT22;11898;51.130;6.780;2024-03-06T00:49:34;9.00;99.90
23452;DHT22;11898;51.130;6.780;2024-03-06T00:52:03;8.90;99.90
23452;DHT22;11898;51.130;6.780;2024-03-06T00:54:32;8.90;99.90
23452;DHT22;11898;51.130;6.780;2024-03-06T00:57:01;8.90;99.90
23452;DHT22;11898;51.130;6.780;2024-03-06T00:59:29;9.00;99.90
23452;DHT22;11898;51.130;6.780;2024-03-06T01:01:58;8.90;99.90
23452;DHT22;11898;51.130;6.780;2024-03-06T01:04:27;8.90;99.90
23452;DHT22;11898;51.130;6.780;2024-03-06T01:06:56;8.80;99.90
23452;DHT22;11898;51.130;6.780;2024-03-06T01:09:26;8.90;99.90
23452;DHT22;11898;51.130;6.780;2024-03-06T01:11:55;8.90;99.90
23452;DHT22;11898;51.130;6.780;2024-03-06T01:14:24;8.90;99.90
23452;DHT22;11898;51.130;6.780;2024-03-06T01:16:52;8.90;99.90
23452;DHT22;11898;51.130;6.780;2024-03-06T01:19:21;8.90;99.90
23452;DHT22;11898;51.130;6.780;2024-03-06T01:21:50;8.90;99.90
23452;DHT22;11898;51.130;6.780;2024-03-06T01:24:18;8.80;99.90
23452;DHT22;11898;51.130;6.780;2024-03-06T01:26:47;8.80;99.90
23452;DHT22;11898;51.130;6.780;2024-03-06T01:29:20;8.80;99.90
23452;DHT22;11898;51.130;6.780;2024-03-06T01:31:50;8.80;99.90
23452;DHT22;11898;51.130;6.780;2024-03-06T01:34:20;8.80;99.90
23452;DHT22;11898;51.130;6.780;2024-03-06T01:36:49;8.70;99.90
23452;DHT22;11898;51.130;6.780;2024-03-06T01:39:18;8.70;99.90
23452;DHT22;11898;51.130;6.780;2024-03-06T01:41:48;8.80;99.90
23452;DHT22;11898;51.130;6.780;2024-03-06T01:44:18;8.80;99.90
23452;DHT22;11898;51.130;6.780;2024-03-06T01:46:47;8.80;99.90
23452;DHT22;11898;51.130;6.780;2024-03-06T01:49:16;8.80;99.90
23452;DHT22;11898;51.130;6.780;2024-03-06T01:51:56;8.70;99.90
23452;DHT22;11898;51.130;6.780;2024-03-06T01:54:22;8.70;99.90
23452;DHT22;11898;51.130;6.780;2024-03-06T01:56:52;8.70;99.90
23452;DHT22;11898;51.130;6.780;2024-03-06T01:59:23;8.70;99.90
23452;DHT22;11898;51.130;6.780;2024-03-06T02:01:55;8.70;99.90
23452;DHT22;11898;51.130;6.780;2024-03-06T02:04:24;8.70;99.90
23452;DHT22;11898;51.130;6.780;2024-03-06T02:06:55;8.80;99.90
23452;DHT22;11898;51.130;6.780;2024-03-06T02:09:24;8.70;99.90
23452;DHT22;11898;51.130;6.780;2024-03-06T02:11:54;8.80;99.90
23452;DHT22;11898;51.130;6.780;2024-03-06T02:14:23;8.80;99.90
23452;DHT22;11898;51.130;6.780;2024-03-06T02:16:52;8.80;99.90
23452;DHT22;11898;51.130;6.780;2024-03-06T02:19:21;8.80;99.90
23452;DHT22;11898;51.130;6.780;2024-03-06T02:21:50;8.90;99.90
23452;DHT22;11898;51.130;6.780;2024-03-06T02:24:19;8.90;99.90
23452;DHT22;11898;51.130;6.780;2024-03-06T02:26:47;8.90;99.90
23452;DHT22;11898;51.130;6.780;2024-03-06T02:29:17;8.90;99.90
23452;DHT22;11898;51.130;6.780;2024-03-06T02:31:45;9.00;99.90
23452;DHT22;11898;51.130;6.780;2024-03-06T02:34:14;8.90;99.90
23452;DHT22;11898;51.130;6.780;2024-03-06T02:36:43;8.90;99.90
23452;DHT22;11898;51.130;6.780;2024-03-06T02:39:12;8.90;99.90
23452;DHT22;11898;51.130;6.780;2024-03-06T02:41:42;8.90;99.90
23452;DHT22;11898;51.130;6.780;2024-03-06T02:44:10;8.90;99.90
23452;DHT22;11898;51.130;6.780;2024-03-06T02:46:40;9.00;99.90
23452;DHT22;11898;51.130;6.780;2024-03-06T02:49:09;8.90;99.90
23452;DHT22;11898;51.130;6.780;2024-03-06T02:51:37;8.80;99.90
23452;DHT22;11898;51.130;6.780;2024-03-06T02:54:06;8.90;99.90
23452;DHT22;11898;51.130;6.780;2024-03-06T02:56:35;9.00;99.90
23452;DHT22;11898;51.130;6.780;2024-03-06T02:59:03;8.80;99.90
23452;DHT22;11898;51.130;6.780;2024-03-06T03:01:32;8.80;99.90
23452;DHT22;11898;51.130;6.780;2024-03-06T03:04:01;8.70;99.90
23452;DHT22;11898;51.130;6.780;2024-03-06T03:06:30;8.70;99.90
23452;DHT22;11898;51.130;6.780;2024-03-06T03:08:59;8.80;99.90
23452;DHT22;11898;51.130;6.780;2024-03-06T03:11:27;8.70;99.90
23452;DHT22;11898;51.130;6.780;2024-03-06T03:13:56;8.70;99.90
23452;DHT22;11898;51.130;6.780;2024-03-06T03:16:25;8.60;99.90
23452;DHT22;11898;51.130;6.780;2024-03-06T03:18:53;8.60;99.90
23452;DHT22;11898;51.130;6.780;2024-03-06T03:21:22;8.50;99.90
23452;DHT22;11898;51.130;6.780;2024-03-06T03:23:51;8.40;99.90
23452;DHT22;11898;51.130;6.780;2024-03-06T03:26:20;8.40;99.90
23452;DHT22;11898;51.130;6.780;2024-03-06T03:28:48;8.50;99.90
23452;DHT22;11898;51.130;6.780;2024-03-06T03:33:46;8.30;99.90
23452;DHT22;11898;51.130;6.780;2024-03-06T03:36:16;8.30;99.90
23452;DHT22;11898;51.130;6.780;2024-03-06T03:38:45;8.30;99.90
23452;DHT22;11898;51.130;6.780;2024-03-06T03:41:14;8.20;99.90
23452;DHT22;11898;51.130;6.780;2024-03-06T03:43:45;8.10;99.90
23452;DHT22;11898;51.130;6.780;2024-03-06T03:46:14;8.10;99.90
23452;DHT22;11898;51.130;6.780;2024-03-06T03:48:43;8.00;99.90
23452;DHT22;11898;51.130;6.780;2024-03-06T03:51:12;8.00;99.90
23452;DHT22;11898;51.130;6.780;2024-03-06T03:53:41;8.00;99.90
23452;DHT22;11898;51.130;6.780;2024-03-06T03:56:10;8.00;99.90
23452;DHT22;11898;51.130;6.780;2024-03-06T03:58:39;8.00;99.90
23452;DHT22;11898;51.130;6.780;2024-03-06T04:01:14;8.00;99.90
23452;DHT22;11898;51.130;6.780;2024-03-06T04:03:39;7.90;99.90
23452;DHT22;11898;51.130;6.780;2024-03-06T04:06:11;7.90;99.90
23452;DHT22;11898;51.130;6.780;2024-03-06T04:08:41;7.90;99.90
23452;DHT22;11898;51.130;6.780;2024-03-06T04:11:10;7.90;99.90
23452;DHT22;11898;51.130;6.780;2024-03-06T04:13:39;7.90;99.90
23452;DHT22;11898;51.130;6.780;2024-03-06T04:16:08;8.10;99.90
23452;DHT22;11898;51.130;6.780;2024-03-06T04:18:37;8.00;99.90
23452;DHT22;11898;51.130;6.780;2024-03-06T04:21:07;8.00;99.90
23452;DHT22;11898;51.130;6.780;2024-03-06T04:23:38;8.00;99.90
23452;DHT22;11898;51.130;6.780;2024-03-06T04:26:06;8.00;99.90
23452;DHT22;11898;51.130;6.780;2024-03-06T04:28:35;8.10;99.90
23452;DHT22;11898;51.130;6.780;2024-03-06T04:31:05;8.00;99.90
23452;DHT22;11898;51.130;6.780;2024-03-06T04:33:33;8.10;99.90
23452;DHT22;11898;51.130;6.780;2024-03-06T04:36:03;8.00;99.90
23452;DHT22;11898;51.130;6.780;2024-03-06T04:38:34;8.10;99.90
23452;DHT22;11898;51.130;6.780;2024-03-06T04:41:05;8.10;99.90
23452;DHT22;11898;51.130;6.780;2024-03-06T04:43:34;8.20;99.90
23452;DHT22;11898;51.130;6.780;2024-03-06T04:46:03;8.10;99.90
23452;DHT22;11898;51.130;6.780;2024-03-06T04:48:32;8.10;99.90
23452;DHT22;11898;51.130;6.780;2024-03-06T04:51:01;8.20;99.90
23452;DHT22;11898;51.130;6.780;2024-03-06T04:53:30;8.20;99.90
23452;DHT22;11898;51.130;6.780;2024-03-06T04:55:59;8.30;99.90
23452;DHT22;11898;51.130;6.780;2024-03-06T04:58:27;8.30;99.90
23452;DHT22;11898;51.130;6.780;2024-03-06T05:00:56;8.30;99.90
23452;DHT22;11898;51.130;6.780;2024-03-06T05:03:25;8.30;99.90
23452;DHT22;11898;51.130;6.780;2024-03-06T05:06:11;8.20;99.90
23452;DHT22;11898;51.130;6.780;2024-03-06T05:08:57;8.20;99.90
23452;DHT22;11898;51.130;6.780;2024-03-06T05:11:44;8.20;99.90
23452;DHT22;11898;51.130;6.780;2024-03-06T05:14:30;8.20;99.90
23452;DHT22;11898;51.130;6.780;2024-03-06T05:17:16;8.20;99.90
23452;DHT22;11898;51.130;6.780;2024-03-06T05:20:03;8.20;99.90
23452;DHT22;11898;51.130;6.780;2024-03-06T05:22:49;8.10;99.90
23452;DHT22;11898;51.130;6.780;2024-03-06T05:25:36;8.10;99.90
23452;DHT22;11898;51.130;6.780;2024-03-06T05:28:22;8.10;99.90
23452;DHT22;11898;51.130;6.780;2024-03-06T05:31:19;8.10;99.90
23452;DHT22;11898;51.130;6.780;2024-03-06T05:34:05;8.10;99.90
23452;DHT22;11898;51.130;6.780;2024-03-06T05:36:52;8.20;99.90
23452;DHT22;11898;51.130;6.780;2024-03-06T05:39:38;8.00;99.90
23452;DHT22;11898;51.130;6.780;2024-03-06T05:42:25;8.00;99.90
23452;DHT22;11898;51.130;6.780;2024-03-06T05:45:12;7.90;99.90
23452;DHT22;11898;51.130;6.780;2024-03-06T05:47:58;8.00;99.90
23452;DHT22;11898;51.130;6.780;2024-03-06T05:50:44;8.60;99.90
23452;DHT22;11898;51.130;6.780;2024-03-06T05:53:35;7.70;99.90
23452;DHT22;11898;51.130;6.780;2024-03-06T05:56:19;7.60;99.90
23452;DHT22;11898;51.130;6.780;2024-03-06T05:59:05;7.60;99.90
23452;DHT22;11898;51.130;6.780;2024-03-06T06:01:35;7.50;99.90
23452;DHT22;11898;51.130;6.780;2024-03-06T06:04:04;7.50;99.90
23452;DHT22;11898;51.130;6.780;2024-03-06T06:06:35;7.50;99.90
23452;DHT22;11898;51.130;6.780;2024-03-06T06:09:04;7.40;99.90
23452;DHT22;11898;51.130;6.780;2024-03-06T06:11:45;7.40;99.90
23452;DHT22;11898;51.130;6.780;2024-03-06T06:14:14;7.30;99.90
23452;DHT22;11898;51.130;6.780;2024-03-06T06:16:43;7.30;99.90
23452;DHT22;11898;51.130;6.780;2024-03-06T06:19:11;7.20;99.90
23452;DHT22;11898;51.130;6.780;2024-03-06T06:21:40;7.20;99.90
23452;DHT22;11898;51.130;6.780;2024-03-06T06:24:09;7.20;99.90
23452;DHT22;11898;51.130;6.780;2024-03-06T06:26:37;7.10;99.90
23452;DHT22;11898;51.130;6.780;2024-03-06T06:29:06;7.20;99.90
23452;DHT22;11898;51.130;6.780;2024-03-06T06:31:36;7.20;99.90
23452;DHT22;11898;51.130;6.780;2024-03-06T06:34:05;7.20;99.90
23452;DHT22;11898;51.130;6.780;2024-03-06T06:36:34;7.20;99.90
23452;DHT22;11898;51.130;6.780;2024-03-06T06:39:04;7.20;99.90
23452;DHT22;11898;51.130;6.780;2024-03-06T06:41:34;7.40;99.90
23452;DHT22;11898;51.130;6.780;2024-03-06T06:44:03;7.40;99.90
23452;DHT22;11898;51.130;6.780;2024-03-06T06:46:32;7.30;99.90
23452;DHT22;11898;51.130;6.780;2024-03-06T06:49:01;7.50;99.90
23452;DHT22;11898;51.130;6.780;2024-03-06T06:51:29;7.60;99.90
23452;DHT22;11898;51.130;6.780;2024-03-06T06:53:58;7.60;99.90
23452;DHT22;11898;51.130;6.780;2024-03-06T06:56:27;7.70;99.90
23452;DHT22;11898;51.130;6.780;2024-03-06T06:58:56;7.70;99.90
23452;DHT22;11898;51.130;6.780;2024-03-06T07:01:25;8.00;99.90
23452;DHT22;11898;51.130;6.780;2024-03-06T07:03:56;8.00;99.90
23452;DHT22;11898;51.130;6.780;2024-03-06T07:06:24;8.00;99.90
23452;DHT22;11898;51.130;6.780;2024-03-06T07:08:53;7.90;99.90
23452;DHT22;11898;51.130;6.780;2024-03-06T07:11:22;8.00;99.90
23452;DHT22;11898;51.130;6.780;2024-03-06T07:13:51;7.90;99.90
23452;DHT22;11898;51.130;6.780;2024-03-06T07:16:20;8.00;99.90
23452;DHT22;11898;51.130;6.780;2024-03-06T07:18:51;7.90;99.90
23452;DHT22;11898;51.130;6.780;2024-03-06T07:21:19;8.00;99.90
23452;DHT22;11898;51.130;6.780;2024-03-06T07:23:48;8.00;99.90
23452;DHT22;11898;51.130;6.780;2024-03-06T07:26:17;8.10;99.90
23452;DHT22;11898;51.130;6.780;2024-03-06T07:28:46;8.10;99.90
23452;DHT22;11898;51.130;6.780;2024-03-06T07:31:14;8.30;99.90
23452;DHT22;11898;51.130;6.780;2024-03-06T07:33:43;8.30;99.90
23452;DHT22;11898;51.130;6.780;2024-03-06T07:36:12;8.40;99.90
23452;DHT22;11898;51.130;6.780;2024-03-06T07:38:40;8.50;99.90
23452;DHT22;11898;51.130;6.780;2024-03-06T07:41:09;8.70;99.90
23452;DHT22;11898;51.130;6.780;2024-03-06T07:43:38;8.90;99.90
23452;DHT22;11898;51.130;6.780;2024-03-06T07:46:07;9.10;99.90
23452;DHT22;11898;51.130;6.780;2024-03-06T07:48:37;9.40;99.90
23452;DHT22;11898;51.130;6.780;2024-03-06T07:51:07;9.80;99.90
23452;DHT22;11898;51.130;6.780;2024-03-06T07:53:36;10.10;99.90
23452;DHT22;11898;51.130;6.780;2024-03-06T07:56:05;10.40;99.90
23452;DHT22;11898;51.130;6.780;2024-03-06T07:58:34;10.50;99.90
23452;DHT22;11898;51.130;6.780;2024-03-06T08:01:03;10.90;99.90
23452;DHT22;11898;51.130;6.780;2024-03-06T08:03:32;11.50;99.90
23452;DHT22;11898;51.130;6.780;2024-03-06T08:06:01;12.00;99.90
23452;DHT22;11898;51.130;6.780;2024-03-06T08:08:31;12.30;99.90
23452;DHT22;11898;51.130;6.780;2024-03-06T08:11:00;12.40;99.90
23452;DHT22;11898;51.130;6.780;2024-03-06T08:13:29;12.30;99.90
23452;DHT22;11898;51.130;6.780;2024-03-06T08:15:58;12.20;99.90
23452;DHT22;11898;51.130;6.780;2024-03-06T08:18:26;12.00;99.90
23452;DHT22;11898;51.130;6.780;2024-03-06T08:20:56;11.80;99.90
23452;DHT22;11898;51.130;6.780;2024-03-06T08:23:26;11.70;99.90
23452;DHT22;11898;51.130;6.780;2024-03-06T08:25:55;11.40;99.90
23452;DHT22;11898;51.130;6.780;2024-03-06T08:28:25;11.40;99.90
23452;DHT22;11898;51.130;6.780;2024-03-06T08:30:54;11.20;99.90
23452;DHT22;11898;51.130;6.780;2024-03-06T08:33:22;11.30;99.90
23452;DHT22;11898;51.130;6.780;2024-03-06T08:35:53;11.10;99.90
23452;DHT22;11898;51.130;6.780;2024-03-06T08:38:21;11.10;99.90
23452;DHT22;11898;51.130;6.780;2024-03-06T08:40:51;11.20;99.90
23452;DHT22;11898;51.130;6.780;2024-03-06T08:43:20;11.30;99.90
23452;DHT22;11898;51.130;6.780;2024-03-06T08:45:49;11.40;99.90
23452;DHT22;11898;51.130;6.780;2024-03-06T08:48:17;11.50;99.90
23452;DHT22;11898;51.130;6.780;2024-03-06T08:50:46;11.60;99.90
23452;DHT22;11898;51.130;6.780;2024-03-06T08:53:15;11.80;99.90
23452;DHT22;11898;51.130;6.780;2024-03-06T08:55:44;11.90;99.90
23452;DHT22;11898;51.130;6.780;2024-03-06T08:58:13;11.90;99.90
23452;DHT22;11898;51.130;6.780;2024-03-06T09:00:42;11.90;99.90
23452;DHT22;11898;51.130;6.780;2024-03-06T09:03:10;11.90;99.90
23452;DHT22;11898;51.130;6.780;2024-03-06T09:05:39;12.00;99.90
23452;DHT22;11898;51.130;6.780;2024-03-06T09:08:08;12.10;99.90
23452;DHT22;11898;51.130;6.780;2024-03-06T09:10:38;12.10;99.90
23452;DHT22;11898;51.130;6.780;2024-03-06T09:13:06;12.30;99.90
23452;DHT22;11898;51.130;6.780;2024-03-06T09:15:36;12.40;99.90
23452;DHT22;11898;51.130;6.780;2024-03-06T09:18:06;12.40;99.90
23452;DHT22;11898;51.130;6.780;2024-03-06T09:20:34;12.50;99.90
23452;DHT22;11898;51.130;6.780;2024-03-06T09:23:03;12.60;99.90
23452;DHT22;11898;51.130;6.780;2024-03-06T09:25:32;12.70;99.90
23452;DHT22;11898;51.130;6.780;2024-03-06T09:28:03;12.70;99.90
23452;DHT22;11898;51.130;6.780;2024-03-06T09:30:33;13.00;99.90
23452;DHT22;11898;51.130;6.780;2024-03-06T09:33:02;13.70;99.90
23452;DHT22;11898;51.130;6.780;2024-03-06T09:35:31;14.80;99.90
23452;DHT22;11898;51.130;6.780;2024-03-06T09:38:00;15.80;99.90
23452;DHT22;11898;51.130;6.780;2024-03-06T09:40:29;16.50;99.90
23452;DHT22;11898;51.130;6.780;2024-03-06T09:43:01;17.10;99.90
23452;DHT22;11898;51.130;6.780;2024-03-06T09:47:58;17.70;99.90
23452;DHT22;11898;51.130;6.780;2024-03-06T09:50:29;18.60;99.90
23452;DHT22;11898;51.130;6.780;2024-03-06T09:52:59;18.90;99.90
23452;DHT22;11898;51.130;6.780;2024-03-06T09:55:29;19.20;99.90
23452;DHT22;11898;51.130;6.780;2024-03-06T09:57:58;19.70;99.90
23452;DHT22;11898;51.130;6.780;2024-03-06T10:00:27;19.90;99.90
23452;DHT22;11898;51.130;6.780;2024-03-06T10:02:59;19.50;99.90
23452;DHT22;11898;51.130;6.780;2024-03-06T10:05:28;18.90;99.90
23452;DHT22;11898;51.130;6.780;2024-03-06T10:07:58;18.50;99.90
23452;DHT22;11898;51.130;6.780;2024-03-06T10:10:27;18.70;99.90
23452;DHT22;11898;51.130;6.780;2024-03-06T10:12:56;18.40;99.90
23452;DHT22;11898;51.130;6.780;2024-03-06T10:15:28;17.70;99.90
23452;DHT22;11898;51.130;6.780;2024-03-06T10:18:15;17.10;99.90
23452;DHT22;11898;51.130;6.780;2024-03-06T10:20:42;16.80;99.90
23452;DHT22;11898;51.130;6.780;2024-03-06T10:23:14;16.60;99.90
23452;DHT22;11898;51.130;6.780;2024-03-06T10:25:48;16.50;99.90
23452;DHT22;11898;51.130;6.780;2024-03-06T10:28:23;16.40;99.90
23452;DHT22;11898;51.130;6.780;2024-03-06T10:31:02;16.20;99.90
23452;DHT22;11898;51.130;6.780;2024-03-06T10:33:24;16.50;99.90
23452;DHT22;11898;51.130;6.780;2024-03-06T10:35:55;17.10;99.90
23452;DHT22;11898;51.130;6.780;2024-03-06T10:38:28;17.60;99.90
23452;DHT22;11898;51.130;6.780;2024-03-06T10:40:58;17.90;99.90
23452;DHT22;11898;51.130;6.780;2024-03-06T10:43:29;18.60;99.90
23452;DHT22;11898;51.130;6.780;2024-03-06T10:46:05;19.80;99.90
23452;DHT22;11898;51.130;6.780;2024-03-06T10:48:35;20.70;99.90
23452;DHT22;11898;51.130;6.780;2024-03-06T10:51:06;21.20;99.90
23452;DHT22;11898;51.130;6.780;2024-03-06T10:53:36;21.30;99.90
23452;DHT22;11898;51.130;6.780;2024-03-06T10:56:08;20.90;99.90
23452;DHT22;11898;51.130;6.780;2024-03-06T10:58:38;20.80;99.90
23452;DHT22;11898;51.130;6.780;2024-03-06T11:01:08;20.70;99.90
23452;DHT22;11898;51.130;6.780;2024-03-06T11:03:38;20.10;99.90
23452;DHT22;11898;51.130;6.780;2024-03-06T11:06:07;19.20;99.90
23452;DHT22;11898;51.130;6.780;2024-03-06T11:08:36;18.40;99.90
23452;DHT22;11898;51.130;6.780;2024-03-06T11:11:26;17.70;99.90
23452;DHT22;11898;51.130;6.780;2024-03-06T11:13:59;17.20;99.90
23452;DHT22;11898;51.130;6.780;2024-03-06T11:16:32;17.20;99.90
23452;DHT22;11898;51.130;6.780;2024-03-06T11:19:07;17.60;99.90
23452;DHT22;11898;51.130;6.780;2024-03-06T11:21:48;17.90;99.90
23452;DHT22;11898;51.130;6.780;2024-03-06T11:24:22;17.70;99.90
23452;DHT22;11898;51.130;6.780;2024-03-06T11:27:01;18.00;99.90
23452;DHT22;11898;51.130;6.780;2024-03-06T11:30:06;19.00;99.90
23452;DHT22;11898;51.130;6.780;2024-03-06T11:33:03;20.10;99.90
23452;DHT22;11898;51.130;6.780;2024-03-06T11:35:30;20.70;99.90
23452;DHT22;11898;51.130;6.780;2024-03-06T11:37:59;20.80;99.90
23452;DHT22;11898;51.130;6.780;2024-03-06T11:40:29;20.60;99.90
23452;DHT22;11898;51.130;6.780;2024-03-06T11:43:21;20.70;99.90
23452;DHT22;11898;51.130;6.780;2024-03-06T11:45:31;21.10;99.90
23452;DHT22;11898;51.130;6.780;2024-03-06T11:48:03;21.50;99.90
23452;DHT22;11898;51.130;6.780;2024-03-06T11:50:32;21.60;99.90
23452;DHT22;11898;51.130;6.780;2024-03-06T11:53:01;21.50;99.90
23452;DHT22;11898;51.130;6.780;2024-03-06T11:55:30;21.20;99.90
23452;DHT22;11898;51.130;6.780;2024-03-06T11:57:59;20.80;99.90
23452;DHT22;11898;51.130;6.780;2024-03-06T12:00:30;20.90;99.90
23452;DHT22;11898;51.130;6.780;2024-03-06T12:02:59;21.20;99.90
23452;DHT22;11898;51.130;6.780;2024-03-06T12:05:28;21.60;99.90
23452;DHT22;11898;51.130;6.780;2024-03-06T12:12:53;22.30;99.90
23452;DHT22;11898;51.130;6.780;2024-03-06T12:15:23;24.60;99.90
23452;DHT22;11898;51.130;6.780;2024-03-06T12:20:21;24.90;99.90
23452;DHT22;11898;51.130;6.780;2024-03-06T12:42:52;25.30;99.90
23452;DHT22;11898;51.130;6.780;2024-03-06T12:45:21;21.20;99.90
23452;DHT22;11898;51.130;6.780;2024-03-06T12:47:50;20.60;99.90
23452;DHT22;11898;51.130;6.780;2024-03-06T12:50:19;20.00;99.90
23452;DHT22;11898;51.130;6.780;2024-03-06T12:52:48;19.60;99.90
23452;DHT22;11898;51.130;6.780;2024-03-06T12:55:17;19.20;99.90
23452;DHT22;11898;51.130;6.780;2024-03-06T12:57:46;18.80;99.90
23452;DHT22;11898;51.130;6.780;2024-03-06T13:00:15;18.60;99.90
23452;DHT22;11898;51.130;6.780;2024-03-06T13:02:44;18.60;99.90
23452;DHT22;11898;51.130;6.780;2024-03-06T13:05:14;18.70;99.90
23452;DHT22;11898;51.130;6.780;2024-03-06T13:07:44;19.10;99.90
23452;DHT22;11898;51.130;6.780;2024-03-06T13:10:13;19.40;99.90
23452;DHT22;11898;51.130;6.780;2024-03-06T13:12:41;19.70;99.90
23452;DHT22;11898;51.130;6.780;2024-03-06T13:15:10;19.90;99.90
23452;DHT22;11898;51.130;6.780;2024-03-06T13:17:39;20.20;99.90
23452;DHT22;11898;51.130;6.780;2024-03-06T13:20:08;20.30;99.90
23452;DHT22;11898;51.130;6.780;2024-03-06T13:22:40;20.50;99.90
23452;DHT22;11898;51.130;6.780;2024-03-06T13:25:09;20.60;99.90
23452;DHT22;11898;51.130;6.780;2024-03-06T13:27:38;20.80;99.90
23452;DHT22;11898;51.130;6.780;2024-03-06T13:30:07;20.90;99.90
23452;DHT22;11898;51.130;6.780;2024-03-06T13:32:36;21.00;99.90
23452;DHT22;11898;51.130;6.780;2024-03-06T13:35:06;21.00;99.90
23452;DHT22;11898;51.130;6.780;2024-03-06T13:37:36;20.90;99.90
23452;DHT22;11898;51.130;6.780;2024-03-06T13:40:07;20.90;99.90
23452;DHT22;11898;51.130;6.780;2024-03-06T13:42:37;20.80;99.90
23452;DHT22;11898;51.130;6.780;2024-03-06T13:45:06;20.80;99.90
23452;DHT22;11898;51.130;6.780;2024-03-06T13:47:37;20.80;99.90
23452;DHT22;11898;51.130;6.780;2024-03-06T13:50:13;20.80;99.90
23452;DHT22;11898;51.130;6.780;2024-03-06T13:52:42;21.00;99.90
23452;DHT22;11898;51.130;6.780;2024-03-06T13:55:11;20.80;99.90
23452;DHT22;11898;51.130;6.780;2024-03-06T13:57:40;20.80;99.90
23452;DHT22;11898;51.130;6.780;2024-03-06T14:00:10;20.80;99.90
23452;DHT22;11898;51.130;6.780;2024-03-06T14:02:44;20.90;99.90
23452;DHT22;11898;51.130;6.780;2024-03-06T14:05:14;20.90;99.90
23452;DHT22;11898;51.130;6.780;2024-03-06T14:07:43;21.00;99.90
23452;DHT22;11898;51.130;6.780;2024-03-06T14:10:12;21.00;99.90
23452;DHT22;11898;51.130;6.780;2024-03-06T14:12:41;21.10;99.90
23452;DHT22;11898;51.130;6.780;2024-03-06T14:15:10;21.00;99.90
23452;DHT22;11898;51.130;6.780;2024-03-06T14:17:41;20.90;99.90
23452;DHT22;11898;51.130;6.780;2024-03-06T14:20:10;20.90;99.90
23452;DHT22;11898;51.130;6.780;2024-03-06T14:22:44;20.80;99.90
23452;DHT22;11898;51.130;6.780;2024-03-06T14:25:15;20.80;99.90
23452;DHT22;11898;51.130;6.780;2024-03-06T14:27:44;20.80;99.90
23452;DHT22;11898;51.130;6.780;2024-03-06T14:30:13;20.80;99.90
23452;DHT22;11898;51.130;6.780;2024-03-06T14:32:43;20.80;99.90
23452;DHT22;11898;51.130;6.780;2024-03-06T14:35:12;20.70;99.90
23452;DHT22;11898;51.130;6.780;2024-03-06T14:37:42;20.70;99.90
23452;DHT22;11898;51.130;6.780;2024-03-06T14:40:11;20.50;99.90
23452;DHT22;11898;51.130;6.780;2024-03-06T14:42:41;20.40;99.90
23452;DHT22;11898;51.130;6.780;2024-03-06T14:45:10;20.30;99.90
23452;DHT22;11898;51.130;6.780;2024-03-06T14:47:39;20.00;99.90
23452;DHT22;11898;51.130;6.780;2024-03-06T14:50:08;19.80;99.90
23452;DHT22;11898;51.130;6.780;2024-03-06T14:52:37;19.60;99.90
23452;DHT22;11898;51.130;6.780;2024-03-06T14:55:06;19.40;99.90
23452;DHT22;11898;51.130;6.780;2024-03-06T14:57:37;19.30;99.90
23452;DHT22;11898;51.130;6.780;2024-03-06T15:00:07;19.30;99.90
23452;DHT22;11898;51.130;6.780;2024-03-06T15:02:36;19.30;99.90
23452;DHT22;11898;51.130;6.780;2024-03-06T15:05:05;19.20;99.90
23452;DHT22;11898;51.130;6.780;2024-03-06T15:07:33;19.20;99.90
23452;DHT22;11898;51.130;6.780;2024-03-06T15:10:03;19.30;99.90
23452;DHT22;11898;51.130;6.780;2024-03-06T15:12:31;19.30;99.90
23452;DHT22;11898;51.130;6.780;2024-03-06T15:15:02;19.30;99.90
23452;DHT22;11898;51.130;6.780;2024-03-06T15:17:33;19.30;99.90
23452;DHT22;11898;51.130;6.780;2024-03-06T15:20:04;19.30;99.90
23452;DHT22;11898;51.130;6.780;2024-03-06T15:22:35;19.10;99.90
23452;DHT22;11898;51.130;6.780;2024-03-06T15:25:06;19.10;99.90
23452;DHT22;11898;51.130;6.780;2024-03-06T15:27:37;19.00;99.90
23452;DHT22;11898;51.130;6.780;2024-03-06T15:30:08;18.90;99.90
23452;DHT22;11898;51.130;6.780;2024-03-06T15:32:38;18.90;99.90
23452;DHT22;11898;51.130;6.780;2024-03-06T15:35:08;18.80;99.90
23452;DHT22;11898;51.130;6.780;2024-03-06T15:37:39;18.70;99.90
23452;DHT22;11898;51.130;6.780;2024-03-06T15:40:08;18.60;99.90
23452;DHT22;11898;51.130;6.780;2024-03-06T15:42:38;18.40;99.90
23452;DHT22;11898;51.130;6.780;2024-03-06T15:45:08;18.30;99.90
23452;DHT22;11898;51.130;6.780;2024-03-06T15:47:39;18.30;99.90
23452;DHT22;11898;51.130;6.780;2024-03-06T15:50:11;18.10;99.90
23452;DHT22;11898;51.130;6.780;2024-03-06T15:52:40;18.10;99.90
23452;DHT22;11898;51.130;6.780;2024-03-06T15:55:10;18.00;99.90
23452;DHT22;11898;51.130;6.780;2024-03-06T15:57:38;17.90;99.90
23452;DHT22;11898;51.130;6.780;2024-03-06T16:00:07;17.70;99.90
23452;DHT22;11898;51.130;6.780;2024-03-06T16:02:38;17.60;99.90
23452;DHT22;11898;51.130;6.780;2024-03-06T16:05:08;17.60;99.90
23452;DHT22;11898;51.130;6.780;2024-03-06T16:07:36;17.30;99.90
23452;DHT22;11898;51.130;6.780;2024-03-06T16:10:07;17.30;99.90
23452;DHT22;11898;51.130;6.780;2024-03-06T16:12:36;17.20;99.90
23452;DHT22;11898;51.130;6.780;2024-03-06T16:15:06;17.10;99.90
23452;DHT22;11898;51.130;6.780;2024-03-06T16:17:35;17.00;99.90
23452;DHT22;11898;51.130;6.780;2024-03-06T16:20:06;16.80;99.90
23452;DHT22;11898;51.130;6.780;2024-03-06T16:22:35;16.60;99.90
23452;DHT22;11898;51.130;6.780;2024-03-06T16:25:04;16.60;99.90
23452;DHT22;11898;51.130;6.780;2024-03-06T16:27:34;16.50;99.90
23452;DHT22;11898;51.130;6.780;2024-03-06T16:30:02;16.40;99.90
23452;DHT22;11898;51.130;6.780;2024-03-06T16:32:33;16.30;99.90
23452;DHT22;11898;51.130;6.780;2024-03-06T16:35:02;16.30;99.90